sensor_id;sensor_type;location;lat;lon;timestamp;P1;durP1;ratioP1;P2;durP2;ratioP2
58918;SDS011;44704;50.122;19.932;2022-10-16T00:01:16;18.10;;;13.00;;
58918;SDS011;44704;50.122;19.932;2022-10-16T00:03:44;14.70;;;12.70;;
58918;SDS011;44704;50.122;19.932;2022-10-16T00:06:12;19.10;;;13.30;;
58918;SDS011;44704;50.122;19.932;2022-10-16T00:08:40;14.80;;;12.40;;
58918;SDS011;44704;50.122;19.932;2022-10-16T00:11:08;19.90;;;12.70;;
58918;SDS011;44704;50.122;19.932;2022-10-16T00:13:40;21.20;;;13.30;;
58918;SDS011;44704;50.122;19.932;2022-10-16T00:16:09;18.50;;;12.60;;
58918;SDS011;44704;50.122;19.932;2022-10-16T00:18:37;16.60;;;12.60;;
58918;SDS011;44704;50.122;19.932;2022-10-16T00:21:05;18.50;;;12.30;;
58918;SDS011;44704;50.122;19.932;2022-10-16T00:23:35;16.40;;;12.30;;
58918;SDS011;44704;50.122;19.932;2022-10-16T00:26:03;19.70;;;13.70;;
58918;SDS011;44704;50.122;19.932;2022-10-16T00:28:33;21.10;;;14.80;;
58918;SDS011;44704;50.122;19.932;2022-10-16T00:31:04;20.20;;;13.90;;
58918;SDS011;44704;50.122;19.932;2022-10-16T00:33:33;19.50;;;13.70;;
58918;SDS011;44704;50.122;19.932;2022-10-16T00:36:00;15.80;;;13.00;;
58918;SDS011;44704;50.122;19.932;2022-10-16T00:38:29;18.10;;;13.40;;
58918;SDS011;44704;50.122;19.932;2022-10-16T00:40:56;19.40;;;12.20;;
58918;SDS011;44704;50.122;19.932;2022-10-16T00:46:19;18.70;;;14.00;;
58918;SDS011;44704;50.122;19.932;2022-10-16T00:48:50;17.40;;;12.70;;
58918;SDS011;44704;50.122;19.932;2022-10-16T00:51:19;17.50;;;12.40;;
58918;SDS011;44704;50.122;19.932;2022-10-16T00:53:49;17.90;;;12.80;;
58918;SDS011;44704;50.122;19.932;2022-10-16T00:56:17;18.00;;;12.90;;
58918;SDS011;44704;50.122;19.932;2022-10-16T00:58:44;18.20;;;13.20;;
58918;SDS011;44704;50.122;19.932;2022-10-16T01:01:11;19.60;;;13.80;;
58918;SDS011;44704;50.122;19.932;2022-10-16T01:03:38;20.90;;;13.30;;
58918;SDS011;44704;50.122;19.932;2022-10-16T01:09:06;24.50;;;15.00;;
58918;SDS011;44704;50.122;19.932;2022-10-16T01:11:38;19.20;;;13.40;;
58918;SDS011;44704;50.122;19.932;2022-10-16T01:14:15;21.30;;;13.40;;
58918;SDS011;44704;50.122;19.932;2022-10-16T01:16:55;23.50;;;14.80;;
58918;SDS011;44704;50.122;19.932;2022-10-16T01:22:01;22.30;;;14.80;;
58918;SDS011;44704;50.122;19.932;2022-10-16T01:24:37;19.90;;;14.50;;
58918;SDS011;44704;50.122;19.932;2022-10-16T01:27:13;19.90;;;14.60;;
58918;SDS011;44704;50.122;19.932;2022-10-16T01:29:52;21.50;;;14.20;;
58918;SDS011;44704;50.122;19.932;2022-10-16T01:32:31;19.00;;;15.10;;
58918;SDS011;44704;50.122;19.932;2022-10-16T01:35:09;21.80;;;14.10;;
58918;SDS011;44704;50.122;19.932;2022-10-16T01:40:23;22.10;;;14.70;;
58918;SDS011;44704;50.122;19.932;2022-10-16T01:42:54;20.50;;;14.80;;
58918;SDS011;44704;50.122;19.932;2022-10-16T01:45:26;23.20;;;15.10;;
58918;SDS011;44704;50.122;19.932;2022-10-16T01:50:23;19.50;;;14.30;;
58918;SDS011;44704;50.122;19.932;2022-10-16T01:52:51;20.50;;;14.60;;
58918;SDS011;44704;50.122;19.932;2022-10-16T01:55:22;19.30;;;13.80;;
58918;SDS011;44704;50.122;19.932;2022-10-16T01:57:56;18.70;;;13.70;;
58918;SDS011;44704;50.122;19.932;2022-10-16T02:00:26;19.00;;;14.00;;
58918;SDS011;44704;50.122;19.932;2022-10-16T02:02:54;18.10;;;13.50;;
58918;SDS011;44704;50.122;19.932;2022-10-16T02:05:26;20.70;;;14.40;;
58918;SDS011;44704;50.122;19.932;2022-10-16T02:07:53;18.50;;;13.60;;
58918;SDS011;44704;50.122;19.932;2022-10-16T02:10:21;18.10;;;13.90;;
58918;SDS011;44704;50.122;19.932;2022-10-16T02:12:55;17.70;;;13.50;;
58918;SDS011;44704;50.122;19.932;2022-10-16T02:15:27;18.00;;;13.50;;
58918;SDS011;44704;50.122;19.932;2022-10-16T02:17:54;22.10;;;13.30;;
58918;SDS011;44704;50.122;19.932;2022-10-16T02:20:25;19.30;;;13.60;;
58918;SDS011;44704;50.122;19.932;2022-10-16T02:22:59;17.50;;;13.50;;
58918;SDS011;44704;50.122;19.932;2022-10-16T02:25:31;19.40;;;13.70;;
58918;SDS011;44704;50.122;19.932;2022-10-16T02:28:04;17.60;;;12.60;;
58918;SDS011;44704;50.122;19.932;2022-10-16T02:30:39;18.30;;;14.00;;
58918;SDS011;44704;50.122;19.932;2022-10-16T02:33:14;19.00;;;13.80;;
58918;SDS011;44704;50.122;19.932;2022-10-16T02:35:42;20.30;;;14.30;;
58918;SDS011;44704;50.122;19.932;2022-10-16T02:38:11;20.80;;;14.50;;
58918;SDS011;44704;50.122;19.932;2022-10-16T02:40:40;21.40;;;15.30;;
58918;SDS011;44704;50.122;19.932;2022-10-16T02:43:09;19.60;;;14.30;;
58918;SDS011;44704;50.122;19.932;2022-10-16T02:45:36;22.60;;;15.60;;
58918;SDS011;44704;50.122;19.932;2022-10-16T02:48:03;23.20;;;14.50;;
58918;SDS011;44704;50.122;19.932;2022-10-16T02:50:30;21.90;;;14.90;;
58918;SDS011;44704;50.122;19.932;2022-10-16T02:52:57;20.30;;;14.90;;
58918;SDS011;44704;50.122;19.932;2022-10-16T02:55:24;20.90;;;14.20;;
58918;SDS011;44704;50.122;19.932;2022-10-16T02:57:50;22.30;;;14.40;;
58918;SDS011;44704;50.122;19.932;2022-10-16T03:00:17;19.30;;;14.30;;
58918;SDS011;44704;50.122;19.932;2022-10-16T03:02:44;19.30;;;14.00;;
58918;SDS011;44704;50.122;19.932;2022-10-16T03:05:11;21.30;;;14.90;;
58918;SDS011;44704;50.122;19.932;2022-10-16T03:07:38;31.50;;;19.50;;
58918;SDS011;44704;50.122;19.932;2022-10-16T03:10:05;33.60;;;20.90;;
58918;SDS011;44704;50.122;19.932;2022-10-16T03:12:32;34.60;;;20.40;;
58918;SDS011;44704;50.122;19.932;2022-10-16T03:14:59;31.10;;;20.80;;
58918;SDS011;44704;50.122;19.932;2022-10-16T03:17:26;30.90;;;20.10;;
58918;SDS011;44704;50.122;19.932;2022-10-16T03:19:53;26.70;;;18.00;;
58918;SDS011;44704;50.122;19.932;2022-10-16T03:22:20;27.10;;;17.00;;
58918;SDS011;44704;50.122;19.932;2022-10-16T03:24:46;20.60;;;15.50;;
58918;SDS011;44704;50.122;19.932;2022-10-16T03:27:13;25.30;;;16.50;;
58918;SDS011;44704;50.122;19.932;2022-10-16T03:29:40;21.30;;;15.40;;
58918;SDS011;44704;50.122;19.932;2022-10-16T03:32:07;19.90;;;15.00;;
58918;SDS011;44704;50.122;19.932;2022-10-16T03:34:34;22.90;;;16.30;;
58918;SDS011;44704;50.122;19.932;2022-10-16T03:37:01;26.00;;;15.70;;
58918;SDS011;44704;50.122;19.932;2022-10-16T03:39:27;23.60;;;16.30;;
58918;SDS011;44704;50.122;19.932;2022-10-16T03:41:54;24.70;;;17.80;;
58918;SDS011;44704;50.122;19.932;2022-10-16T03:44:21;24.90;;;17.90;;
58918;SDS011;44704;50.122;19.932;2022-10-16T03:46:48;27.40;;;19.90;;
58918;SDS011;44704;50.122;19.932;2022-10-16T03:49:15;29.10;;;20.80;;
58918;SDS011;44704;50.122;19.932;2022-10-16T03:51:42;29.60;;;21.80;;
58918;SDS011;44704;50.122;19.932;2022-10-16T03:54:09;30.00;;;20.10;;
58918;SDS011;44704;50.122;19.932;2022-10-16T03:56:37;31.50;;;20.20;;
58918;SDS011;44704;50.122;19.932;2022-10-16T03:59:04;32.70;;;19.80;;
58918;SDS011;44704;50.122;19.932;2022-10-16T04:01:31;29.90;;;19.10;;
58918;SDS011;44704;50.122;19.932;2022-10-16T04:03:57;26.80;;;18.90;;
58918;SDS011;44704;50.122;19.932;2022-10-16T04:06:24;27.20;;;18.50;;
58918;SDS011;44704;50.122;19.932;2022-10-16T04:08:51;24.30;;;17.70;;
58918;SDS011;44704;50.122;19.932;2022-10-16T04:11:18;24.20;;;16.50;;
58918;SDS011;44704;50.122;19.932;2022-10-16T04:13:45;22.00;;;15.80;;
58918;SDS011;44704;50.122;19.932;2022-10-16T04:16:12;23.10;;;15.80;;
58918;SDS011;44704;50.122;19.932;2022-10-16T04:18:38;24.00;;;15.90;;
58918;SDS011;44704;50.122;19.932;2022-10-16T04:21:06;20.60;;;14.40;;
58918;SDS011;44704;50.122;19.932;2022-10-16T04:23:33;22.20;;;15.20;;
58918;SDS011;44704;50.122;19.932;2022-10-16T04:26:00;18.40;;;13.90;;
58918;SDS011;44704;50.122;19.932;2022-10-16T04:28:27;22.10;;;16.00;;
58918;SDS011;44704;50.122;19.932;2022-10-16T04:30:54;20.30;;;14.30;;
58918;SDS011;44704;50.122;19.932;2022-10-16T04:33:21;21.60;;;15.50;;
58918;SDS011;44704;50.122;19.932;2022-10-16T04:35:48;21.60;;;14.80;;
58918;SDS011;44704;50.122;19.932;2022-10-16T04:38:15;21.30;;;14.60;;
58918;SDS011;44704;50.122;19.932;2022-10-16T04:40:42;21.80;;;14.20;;
58918;SDS011;44704;50.122;19.932;2022-10-16T04:43:09;21.30;;;14.50;;
58918;SDS011;44704;50.122;19.932;2022-10-16T04:45:36;22.30;;;14.20;;
58918;SDS011;44704;50.122;19.932;2022-10-16T04:48:03;20.70;;;13.80;;
58918;SDS011;44704;50.122;19.932;2022-10-16T04:50:30;20.20;;;14.20;;
58918;SDS011;44704;50.122;19.932;2022-10-16T04:53:06;17.90;;;13.30;;
58918;SDS011;44704;50.122;19.932;2022-10-16T04:55:33;20.50;;;13.70;;
58918;SDS011;44704;50.122;19.932;2022-10-16T04:58:00;20.80;;;15.00;;
58918;SDS011;44704;50.122;19.932;2022-10-16T05:00:27;21.80;;;15.30;;
58918;SDS011;44704;50.122;19.932;2022-10-16T05:02:54;23.30;;;15.80;;
58918;SDS011;44704;50.122;19.932;2022-10-16T05:05:21;22.40;;;16.80;;
58918;SDS011;44704;50.122;19.932;2022-10-16T05:07:48;24.80;;;14.90;;
58918;SDS011;44704;50.122;19.932;2022-10-16T05:10:16;26.50;;;16.10;;
58918;SDS011;44704;50.122;19.932;2022-10-16T05:12:43;21.00;;;15.90;;
58918;SDS011;44704;50.122;19.932;2022-10-16T05:15:10;23.90;;;15.70;;
58918;SDS011;44704;50.122;19.932;2022-10-16T05:17:37;20.10;;;15.00;;
58918;SDS011;44704;50.122;19.932;2022-10-16T05:20:04;25.40;;;15.50;;
58918;SDS011;44704;50.122;19.932;2022-10-16T05:22:32;20.60;;;14.00;;
58918;SDS011;44704;50.122;19.932;2022-10-16T05:24:58;22.50;;;16.00;;
58918;SDS011;44704;50.122;19.932;2022-10-16T05:27:25;22.40;;;16.20;;
58918;SDS011;44704;50.122;19.932;2022-10-16T05:29:52;20.70;;;15.60;;
58918;SDS011;44704;50.122;19.932;2022-10-16T05:32:19;21.70;;;15.40;;
58918;SDS011;44704;50.122;19.932;2022-10-16T05:34:46;22.70;;;16.30;;
58918;SDS011;44704;50.122;19.932;2022-10-16T05:37:12;20.30;;;15.60;;
58918;SDS011;44704;50.122;19.932;2022-10-16T05:39:39;20.90;;;15.60;;
58918;SDS011;44704;50.122;19.932;2022-10-16T05:42:06;23.30;;;16.30;;
58918;SDS011;44704;50.122;19.932;2022-10-16T05:44:33;21.80;;;15.00;;
58918;SDS011;44704;50.122;19.932;2022-10-16T05:47:00;20.60;;;14.40;;
58918;SDS011;44704;50.122;19.932;2022-10-16T05:49:27;22.10;;;14.80;;
58918;SDS011;44704;50.122;19.932;2022-10-16T05:51:54;20.30;;;14.10;;
58918;SDS011;44704;50.122;19.932;2022-10-16T05:54:20;22.70;;;14.90;;
58918;SDS011;44704;50.122;19.932;2022-10-16T05:56:47;18.70;;;12.50;;
58918;SDS011;44704;50.122;19.932;2022-10-16T05:59:14;18.80;;;14.10;;
58918;SDS011;44704;50.122;19.932;2022-10-16T06:01:41;19.70;;;12.70;;
58918;SDS011;44704;50.122;19.932;2022-10-16T06:04:08;18.60;;;13.40;;
58918;SDS011;44704;50.122;19.932;2022-10-16T06:06:36;25.60;;;18.20;;
58918;SDS011;44704;50.122;19.932;2022-10-16T06:09:03;21.90;;;15.70;;
58918;SDS011;44704;50.122;19.932;2022-10-16T06:11:31;26.20;;;18.80;;
58918;SDS011;44704;50.122;19.932;2022-10-16T06:13:59;28.10;;;18.40;;
58918;SDS011;44704;50.122;19.932;2022-10-16T06:16:33;25.90;;;17.70;;
58918;SDS011;44704;50.122;19.932;2022-10-16T06:19:03;25.50;;;18.90;;
58918;SDS011;44704;50.122;19.932;2022-10-16T06:21:32;30.90;;;19.10;;
58918;SDS011;44704;50.122;19.932;2022-10-16T06:23:59;26.20;;;17.50;;
58918;SDS011;44704;50.122;19.932;2022-10-16T06:26:27;23.90;;;17.70;;
58918;SDS011;44704;50.122;19.932;2022-10-16T06:28:56;22.00;;;17.20;;
58918;SDS011;44704;50.122;19.932;2022-10-16T06:31:25;28.90;;;17.00;;
58918;SDS011;44704;50.122;19.932;2022-10-16T06:33:54;23.80;;;16.00;;
58918;SDS011;44704;50.122;19.932;2022-10-16T06:36:21;22.00;;;15.90;;
58918;SDS011;44704;50.122;19.932;2022-10-16T06:38:49;23.20;;;15.70;;
58918;SDS011;44704;50.122;19.932;2022-10-16T06:41:17;22.80;;;15.30;;
58918;SDS011;44704;50.122;19.932;2022-10-16T06:46:13;21.20;;;14.40;;
58918;SDS011;44704;50.122;19.932;2022-10-16T06:51:12;22.20;;;15.50;;
58918;SDS011;44704;50.122;19.932;2022-10-16T06:53:42;22.70;;;16.50;;
58918;SDS011;44704;50.122;19.932;2022-10-16T06:56:16;22.20;;;17.00;;
58918;SDS011;44704;50.122;19.932;2022-10-16T06:58:48;20.50;;;15.90;;
58918;SDS011;44704;50.122;19.932;2022-10-16T07:01:16;21.80;;;16.20;;
58918;SDS011;44704;50.122;19.932;2022-10-16T07:03:45;21.80;;;16.10;;
58918;SDS011;44704;50.122;19.932;2022-10-16T07:06:14;23.50;;;16.00;;
58918;SDS011;44704;50.122;19.932;2022-10-16T07:08:43;24.90;;;16.60;;
58918;SDS011;44704;50.122;19.932;2022-10-16T07:11:12;21.00;;;16.60;;
58918;SDS011;44704;50.122;19.932;2022-10-16T07:13:41;22.10;;;16.20;;
58918;SDS011;44704;50.122;19.932;2022-10-16T07:16:11;22.30;;;16.80;;
58918;SDS011;44704;50.122;19.932;2022-10-16T07:18:39;22.30;;;16.60;;
58918;SDS011;44704;50.122;19.932;2022-10-16T07:21:11;22.40;;;15.60;;
58918;SDS011;44704;50.122;19.932;2022-10-16T07:23:40;20.70;;;15.60;;
58918;SDS011;44704;50.122;19.932;2022-10-16T07:26:08;23.50;;;16.10;;
58918;SDS011;44704;50.122;19.932;2022-10-16T07:28:36;19.90;;;15.70;;
58918;SDS011;44704;50.122;19.932;2022-10-16T07:31:07;22.30;;;16.30;;
58918;SDS011;44704;50.122;19.932;2022-10-16T07:33:37;20.20;;;14.80;;
58918;SDS011;44704;50.122;19.932;2022-10-16T07:36:05;22.30;;;15.80;;
58918;SDS011;44704;50.122;19.932;2022-10-16T07:38:33;20.60;;;15.30;;
58918;SDS011;44704;50.122;19.932;2022-10-16T07:41:01;19.80;;;14.20;;
58918;SDS011;44704;50.122;19.932;2022-10-16T07:43:31;15.40;;;12.90;;
58918;SDS011;44704;50.122;19.932;2022-10-16T07:45:59;17.30;;;13.20;;
58918;SDS011;44704;50.122;19.932;2022-10-16T07:48:27;17.30;;;12.50;;
58918;SDS011;44704;50.122;19.932;2022-10-16T07:50:59;17.80;;;12.60;;
58918;SDS011;44704;50.122;19.932;2022-10-16T07:53:26;15.30;;;11.90;;
58918;SDS011;44704;50.122;19.932;2022-10-16T07:55:57;17.50;;;12.80;;
58918;SDS011;44704;50.122;19.932;2022-10-16T07:58:26;12.90;;;11.20;;
58918;SDS011;44704;50.122;19.932;2022-10-16T08:00:54;20.40;;;12.10;;
58918;SDS011;44704;50.122;19.932;2022-10-16T08:03:22;15.90;;;11.90;;
58918;SDS011;44704;50.122;19.932;2022-10-16T08:05:50;18.70;;;11.80;;
58918;SDS011;44704;50.122;19.932;2022-10-16T08:08:18;15.60;;;11.90;;
58918;SDS011;44704;50.122;19.932;2022-10-16T08:10:45;16.30;;;11.50;;
58918;SDS011;44704;50.122;19.932;2022-10-16T08:13:12;13.10;;;11.10;;
58918;SDS011;44704;50.122;19.932;2022-10-16T08:15:42;15.10;;;11.10;;
58918;SDS011;44704;50.122;19.932;2022-10-16T08:18:09;16.10;;;11.50;;
58918;SDS011;44704;50.122;19.932;2022-10-16T08:20:38;16.10;;;10.70;;
58918;SDS011;44704;50.122;19.932;2022-10-16T08:23:06;14.40;;;10.60;;
58918;SDS011;44704;50.122;19.932;2022-10-16T08:25:36;12.70;;;9.50;;
58918;SDS011;44704;50.122;19.932;2022-10-16T08:28:04;13.70;;;10.30;;
58918;SDS011;44704;50.122;19.932;2022-10-16T08:30:32;13.40;;;9.70;;
58918;SDS011;44704;50.122;19.932;2022-10-16T08:32:59;10.20;;;8.10;;
58918;SDS011;44704;50.122;19.932;2022-10-16T08:35:26;12.60;;;8.70;;
58918;SDS011;44704;50.122;19.932;2022-10-16T08:37:53;9.20;;;8.10;;
58918;SDS011;44704;50.122;19.932;2022-10-16T08:40:29;11.20;;;8.50;;
58918;SDS011;44704;50.122;19.932;2022-10-16T08:45:53;11.50;;;8.40;;
58918;SDS011;44704;50.122;19.932;2022-10-16T08:54:03;11.70;;;8.40;;
58918;SDS011;44704;50.122;19.932;2022-10-16T08:56:30;11.50;;;8.20;;
58918;SDS011;44704;50.122;19.932;2022-10-16T08:58:57;10.90;;;7.50;;
58918;SDS011;44704;50.122;19.932;2022-10-16T09:01:59;11.20;;;7.80;;
58918;SDS011;44704;50.122;19.932;2022-10-16T09:07:09;11.10;;;7.30;;
58918;SDS011;44704;50.122;19.932;2022-10-16T09:09:53;12.60;;;7.60;;
58918;SDS011;44704;50.122;19.932;2022-10-16T09:12:45;8.90;;;7.10;;
58918;SDS011;44704;50.122;19.932;2022-10-16T09:25:43;15.30;;;8.10;;
58918;SDS011;44704;50.122;19.932;2022-10-16T09:28:14;9.90;;;6.80;;
58918;SDS011;44704;50.122;19.932;2022-10-16T09:30:42;7.40;;;6.70;;
58918;SDS011;44704;50.122;19.932;2022-10-16T09:33:10;9.60;;;6.90;;
58918;SDS011;44704;50.122;19.932;2022-10-16T09:35:41;7.80;;;6.60;;
58918;SDS011;44704;50.122;19.932;2022-10-16T09:38:23;10.90;;;7.00;;
58918;SDS011;44704;50.122;19.932;2022-10-16T09:40:50;11.40;;;7.20;;
58918;SDS011;44704;50.122;19.932;2022-10-16T09:46:01;10.90;;;7.40;;
58918;SDS011;44704;50.122;19.932;2022-10-16T09:48:36;7.90;;;6.50;;
58918;SDS011;44704;50.122;19.932;2022-10-16T09:51:05;8.80;;;7.00;;
58918;SDS011;44704;50.122;19.932;2022-10-16T09:53:43;8.40;;;6.40;;
58918;SDS011;44704;50.122;19.932;2022-10-16T09:56:20;9.60;;;6.70;;
58918;SDS011;44704;50.122;19.932;2022-10-16T09:58:53;11.10;;;6.60;;
58918;SDS011;44704;50.122;19.932;2022-10-16T10:01:22;13.50;;;6.70;;
58918;SDS011;44704;50.122;19.932;2022-10-16T10:03:55;10.10;;;7.30;;
58918;SDS011;44704;50.122;19.932;2022-10-16T10:06:31;8.70;;;6.70;;
58918;SDS011;44704;50.122;19.932;2022-10-16T10:09:05;9.80;;;7.00;;
58918;SDS011;44704;50.122;19.932;2022-10-16T10:11:42;7.50;;;6.40;;
58918;SDS011;44704;50.122;19.932;2022-10-16T10:14:16;7.40;;;6.60;;
58918;SDS011;44704;50.122;19.932;2022-10-16T10:16:46;11.20;;;6.60;;
58918;SDS011;44704;50.122;19.932;2022-10-16T10:19:21;8.50;;;6.70;;
58918;SDS011;44704;50.122;19.932;2022-10-16T10:21:50;9.20;;;6.70;;
58918;SDS011;44704;50.122;19.932;2022-10-16T10:24:18;11.00;;;6.50;;
58918;SDS011;44704;50.122;19.932;2022-10-16T10:26:54;8.20;;;6.90;;
58918;SDS011;44704;50.122;19.932;2022-10-16T10:29:29;9.10;;;6.90;;
58918;SDS011;44704;50.122;19.932;2022-10-16T10:42:45;9.70;;;6.20;;
58918;SDS011;44704;50.122;19.932;2022-10-16T10:45:26;8.10;;;6.20;;
58918;SDS011;44704;50.122;19.932;2022-10-16T10:50:47;7.50;;;6.00;;
58918;SDS011;44704;50.122;19.932;2022-10-16T10:53:34;9.60;;;6.20;;
58918;SDS011;44704;50.122;19.932;2022-10-16T10:56:30;8.70;;;5.80;;
58918;SDS011;44704;50.122;19.932;2022-10-16T10:59:40;7.40;;;5.60;;
58918;SDS011;44704;50.122;19.932;2022-10-16T11:07:58;7.00;;;5.50;;
58918;SDS011;44704;50.122;19.932;2022-10-16T11:10:27;6.30;;;5.50;;
58918;SDS011;44704;50.122;19.932;2022-10-16T11:16:16;9.00;;;5.70;;
58918;SDS011;44704;50.122;19.932;2022-10-16T11:21:50;8.90;;;6.00;;
58918;SDS011;44704;50.122;19.932;2022-10-16T11:24:26;8.30;;;5.80;;
58918;SDS011;44704;50.122;19.932;2022-10-16T11:27:03;7.30;;;5.80;;
58918;SDS011;44704;50.122;19.932;2022-10-16T11:29:34;6.60;;;5.30;;
58918;SDS011;44704;50.122;19.932;2022-10-16T11:32:11;8.30;;;6.00;;
58918;SDS011;44704;50.122;19.932;2022-10-16T11:34:57;9.60;;;6.00;;
58918;SDS011;44704;50.122;19.932;2022-10-16T11:37:38;7.70;;;5.90;;
58918;SDS011;44704;50.122;19.932;2022-10-16T11:40:17;7.40;;;5.50;;
58918;SDS011;44704;50.122;19.932;2022-10-16T11:45:54;8.70;;;6.40;;
58918;SDS011;44704;50.122;19.932;2022-10-16T11:48:41;9.00;;;6.20;;
58918;SDS011;44704;50.122;19.932;2022-10-16T11:51:43;9.00;;;5.80;;
58918;SDS011;44704;50.122;19.932;2022-10-16T11:57:17;7.70;;;6.00;;
58918;SDS011;44704;50.122;19.932;2022-10-16T12:02:35;8.10;;;5.90;;
58918;SDS011;44704;50.122;19.932;2022-10-16T12:08:10;7.80;;;5.60;;
58918;SDS011;44704;50.122;19.932;2022-10-16T12:10:39;7.50;;;6.10;;
58918;SDS011;44704;50.122;19.932;2022-10-16T12:18:44;7.20;;;6.20;;
58918;SDS011;44704;50.122;19.932;2022-10-16T12:21:13;11.60;;;6.20;;
58918;SDS011;44704;50.122;19.932;2022-10-16T12:26:26;9.10;;;6.00;;
58918;SDS011;44704;50.122;19.932;2022-10-16T12:28:54;8.10;;;5.40;;
58918;SDS011;44704;50.122;19.932;2022-10-16T12:31:22;6.10;;;5.10;;
58918;SDS011;44704;50.122;19.932;2022-10-16T12:33:57;5.20;;;4.60;;
58918;SDS011;44704;50.122;19.932;2022-10-16T12:36:30;5.30;;;4.80;;
58918;SDS011;44704;50.122;19.932;2022-10-16T12:38:59;10.30;;;4.80;;
58918;SDS011;44704;50.122;19.932;2022-10-16T12:43:54;5.70;;;4.20;;
58918;SDS011;44704;50.122;19.932;2022-10-16T12:48:51;4.80;;;4.20;;
58918;SDS011;44704;50.122;19.932;2022-10-16T12:51:22;5.40;;;4.60;;
58918;SDS011;44704;50.122;19.932;2022-10-16T13:05:26;6.70;;;4.60;;
58918;SDS011;44704;50.122;19.932;2022-10-16T13:22:17;6.30;;;3.90;;
58918;SDS011;44704;50.122;19.932;2022-10-16T13:33:00;8.50;;;4.70;;
58918;SDS011;44704;50.122;19.932;2022-10-16T13:35:31;5.70;;;4.00;;
58918;SDS011;44704;50.122;19.932;2022-10-16T13:41:03;5.50;;;4.10;;
58918;SDS011;44704;50.122;19.932;2022-10-16T13:43:34;6.00;;;4.00;;
58918;SDS011;44704;50.122;19.932;2022-10-16T13:48:39;4.90;;;4.30;;
58918;SDS011;44704;50.122;19.932;2022-10-16T13:51:17;4.30;;;3.90;;
58918;SDS011;44704;50.122;19.932;2022-10-16T13:53:45;5.80;;;3.90;;
58918;SDS011;44704;50.122;19.932;2022-10-16T13:56:13;5.50;;;4.70;;
58918;SDS011;44704;50.122;19.932;2022-10-16T13:58:42;6.40;;;4.30;;
58918;SDS011;44704;50.122;19.932;2022-10-16T14:03:52;6.60;;;4.70;;
58918;SDS011;44704;50.122;19.932;2022-10-16T14:06:20;5.40;;;4.20;;
58918;SDS011;44704;50.122;19.932;2022-10-16T14:08:51;6.10;;;4.10;;
58918;SDS011;44704;50.122;19.932;2022-10-16T14:11:25;5.40;;;4.00;;
58918;SDS011;44704;50.122;19.932;2022-10-16T14:13:52;7.10;;;4.10;;
58918;SDS011;44704;50.122;19.932;2022-10-16T14:16:21;5.40;;;4.10;;
58918;SDS011;44704;50.122;19.932;2022-10-16T14:18:55;7.10;;;4.10;;
58918;SDS011;44704;50.122;19.932;2022-10-16T14:21:24;6.40;;;4.30;;
58918;SDS011;44704;50.122;19.932;2022-10-16T14:23:52;5.40;;;4.30;;
58918;SDS011;44704;50.122;19.932;2022-10-16T14:26:21;6.80;;;5.50;;
58918;SDS011;44704;50.122;19.932;2022-10-16T14:29:01;8.30;;;4.90;;
58918;SDS011;44704;50.122;19.932;2022-10-16T14:31:58;5.90;;;4.10;;
58918;SDS011;44704;50.122;19.932;2022-10-16T14:34:52;6.00;;;4.20;;
58918;SDS011;44704;50.122;19.932;2022-10-16T14:39:51;8.80;;;5.10;;
58918;SDS011;44704;50.122;19.932;2022-10-16T14:42:19;5.90;;;4.30;;
58918;SDS011;44704;50.122;19.932;2022-10-16T14:44:50;7.30;;;4.90;;
58918;SDS011;44704;50.122;19.932;2022-10-16T14:47:20;6.60;;;4.90;;
58918;SDS011;44704;50.122;19.932;2022-10-16T14:49:51;5.70;;;4.20;;
58918;SDS011;44704;50.122;19.932;2022-10-16T14:52:21;6.20;;;4.90;;
58918;SDS011;44704;50.122;19.932;2022-10-16T14:54:48;5.40;;;4.80;;
58918;SDS011;44704;50.122;19.932;2022-10-16T14:57:16;6.30;;;4.50;;
58918;SDS011;44704;50.122;19.932;2022-10-16T14:59:48;6.60;;;4.70;;
58918;SDS011;44704;50.122;19.932;2022-10-16T15:04:47;10.50;;;4.90;;
58918;SDS011;44704;50.122;19.932;2022-10-16T15:07:15;7.80;;;6.10;;
58918;SDS011;44704;50.122;19.932;2022-10-16T15:09:41;14.40;;;8.50;;
58918;SDS011;44704;50.122;19.932;2022-10-16T15:12:08;10.20;;;6.70;;
58918;SDS011;44704;50.122;19.932;2022-10-16T15:14:35;11.20;;;5.70;;
58918;SDS011;44704;50.122;19.932;2022-10-16T15:17:03;10.20;;;5.80;;
58918;SDS011;44704;50.122;19.932;2022-10-16T15:19:30;9.70;;;5.60;;
58918;SDS011;44704;50.122;19.932;2022-10-16T15:21:57;8.00;;;5.40;;
58918;SDS011;44704;50.122;19.932;2022-10-16T15:24:24;9.80;;;5.60;;
58918;SDS011;44704;50.122;19.932;2022-10-16T15:26:50;6.00;;;5.10;;
58918;SDS011;44704;50.122;19.932;2022-10-16T15:29:17;8.40;;;5.60;;
58918;SDS011;44704;50.122;19.932;2022-10-16T15:31:44;8.80;;;5.90;;
58918;SDS011;44704;50.122;19.932;2022-10-16T15:34:13;7.50;;;5.10;;
58918;SDS011;44704;50.122;19.932;2022-10-16T15:36:40;11.50;;;5.70;;
58918;SDS011;44704;50.122;19.932;2022-10-16T15:39:13;9.00;;;6.00;;
58918;SDS011;44704;50.122;19.932;2022-10-16T15:41:41;8.10;;;5.90;;
58918;SDS011;44704;50.122;19.932;2022-10-16T15:44:09;11.00;;;6.10;;
58918;SDS011;44704;50.122;19.932;2022-10-16T15:46:36;8.40;;;5.60;;
58918;SDS011;44704;50.122;19.932;2022-10-16T15:49:03;8.70;;;5.80;;
58918;SDS011;44704;50.122;19.932;2022-10-16T15:51:30;6.50;;;5.40;;
58918;SDS011;44704;50.122;19.932;2022-10-16T15:53:59;8.70;;;5.80;;
58918;SDS011;44704;50.122;19.932;2022-10-16T15:56:28;10.90;;;6.40;;
58918;SDS011;44704;50.122;19.932;2022-10-16T15:58:55;9.70;;;5.90;;
58918;SDS011;44704;50.122;19.932;2022-10-16T16:03:52;8.30;;;5.60;;
58918;SDS011;44704;50.122;19.932;2022-10-16T16:06:21;8.70;;;5.90;;
58918;SDS011;44704;50.122;19.932;2022-10-16T16:08:50;7.30;;;5.20;;
58918;SDS011;44704;50.122;19.932;2022-10-16T16:11:18;7.10;;;6.00;;
58918;SDS011;44704;50.122;19.932;2022-10-16T16:13:45;7.40;;;5.50;;
58918;SDS011;44704;50.122;19.932;2022-10-16T16:16:13;9.30;;;5.70;;
58918;SDS011;44704;50.122;19.932;2022-10-16T16:18:41;6.40;;;5.40;;
58918;SDS011;44704;50.122;19.932;2022-10-16T16:21:12;10.10;;;5.40;;
58918;SDS011;44704;50.122;19.932;2022-10-16T16:23:39;6.40;;;5.50;;
58918;SDS011;44704;50.122;19.932;2022-10-16T16:26:07;8.10;;;6.20;;
58918;SDS011;44704;50.122;19.932;2022-10-16T16:28:39;8.50;;;5.60;;
58918;SDS011;44704;50.122;19.932;2022-10-16T16:31:07;9.60;;;5.70;;
58918;SDS011;44704;50.122;19.932;2022-10-16T16:33:34;10.80;;;6.30;;
58918;SDS011;44704;50.122;19.932;2022-10-16T16:36:02;12.30;;;7.00;;
58918;SDS011;44704;50.122;19.932;2022-10-16T16:38:32;14.60;;;8.20;;
58918;SDS011;44704;50.122;19.932;2022-10-16T16:41:00;17.80;;;10.70;;
58918;SDS011;44704;50.122;19.932;2022-10-16T16:43:37;14.30;;;8.20;;
58918;SDS011;44704;50.122;19.932;2022-10-16T16:46:04;11.20;;;8.00;;
58918;SDS011;44704;50.122;19.932;2022-10-16T16:48:32;10.40;;;7.10;;
58918;SDS011;44704;50.122;19.932;2022-10-16T16:51:17;11.30;;;6.80;;
58918;SDS011;44704;50.122;19.932;2022-10-16T16:53:46;9.10;;;6.90;;
58918;SDS011;44704;50.122;19.932;2022-10-16T16:56:16;12.20;;;7.30;;
58918;SDS011;44704;50.122;19.932;2022-10-16T16:58:45;11.80;;;8.90;;